createdAt,value
2018-05-16T00:01:55.567Z,16.60
2018-05-16T00:04:22.936Z,16.60
2018-05-16T00:06:50.436Z,16.60
2018-05-16T00:09:17.894Z,16.60
2018-05-16T00:11:45.352Z,16.70
2018-05-16T00:14:12.812Z,16.70
2018-05-16T00:16:40.237Z,16.60
2018-05-16T00:19:07.679Z,16.60
2018-05-16T00:21:35.901Z,16.70
2018-05-16T00:24:03.341Z,16.70
2018-05-16T00:26:30.813Z,16.70
2018-05-16T00:28:58.273Z,16.70
2018-05-16T00:31:25.702Z,16.70
2018-05-16T00:33:53.148Z,16.70
2018-05-16T00:36:21.402Z,16.70
2018-05-16T00:38:48.838Z,16.70
2018-05-16T00:41:16.276Z,16.70
2018-05-16T00:43:43.737Z,16.80
2018-05-16T00:46:11.193Z,16.80
2018-05-16T00:48:38.652Z,16.80
2018-05-16T00:51:18.053Z,16.80
2018-05-16T00:53:45.648Z,16.80
2018-05-16T00:56:13.205Z,16.70
2018-05-16T00:58:40.646Z,16.80
2018-05-16T01:01:08.086Z,16.80
2018-05-16T01:03:36.289Z,16.60
2018-05-16T01:06:03.718Z,16.60
2018-05-16T01:08:31.937Z,16.50
2018-05-16T01:10:59.365Z,16.50
2018-05-16T01:13:26.846Z,16.40
2018-05-16T01:15:54.305Z,16.30
2018-05-16T01:18:21.761Z,16.30
2018-05-16T01:20:49.201Z,16.30
2018-05-16T01:23:16.677Z,16.30
2018-05-16T01:25:44.117Z,16.30
2018-05-16T01:28:11.592Z,16.30
2018-05-16T01:30:39.033Z,16.30
2018-05-16T01:33:06.505Z,16.30
2018-05-16T01:35:34.069Z,16.40
2018-05-16T01:38:01.529Z,16.40
2018-05-16T01:40:28.962Z,16.40
2018-05-16T01:42:56.744Z,16.40
2018-05-16T01:45:24.172Z,16.40
2018-05-16T01:47:52.365Z,16.40
2018-05-16T01:50:19.788Z,16.40
2018-05-16T01:52:47.998Z,16.40
2018-05-16T01:55:15.468Z,16.30
2018-05-16T01:57:42.925Z,16.20
2018-05-16T02:00:10.393Z,15.90
2018-05-16T02:02:37.846Z,15.70
2018-05-16T02:05:05.285Z,15.40
2018-05-16T02:07:32.713Z,15.20
2018-05-16T02:10:00.917Z,14.90
2018-05-16T02:12:28.393Z,14.90
2018-05-16T02:14:55.830Z,14.80
2018-05-16T02:17:23.309Z,14.80
2018-05-16T02:19:50.745Z,14.80
2018-05-16T02:22:18.177Z,14.80
2018-05-16T02:24:46.505Z,14.80
2018-05-16T02:27:13.957Z,14.80
2018-05-16T02:29:41.389Z,14.80
2018-05-16T02:32:08.833Z,14.80
2018-05-16T02:34:37.049Z,14.80
2018-05-16T02:37:04.493Z,14.80
2018-05-16T02:39:31.924Z,14.90
2018-05-16T02:42:00.147Z,14.90
2018-05-16T02:44:27.597Z,14.90
2018-05-16T02:46:55.057Z,14.90
2018-05-16T02:49:22.514Z,14.90
2018-05-16T02:51:50.079Z,14.90
2018-05-16T02:54:17.579Z,14.90
2018-05-16T02:56:44.973Z,15.00
2018-05-16T02:59:12.473Z,15.00
2018-05-16T03:01:40.033Z,15.00
2018-05-16T03:04:07.478Z,15.00
2018-05-16T03:06:34.905Z,15.00
2018-05-16T03:09:02.345Z,15.00
2018-05-16T03:11:29.777Z,15.00
2018-05-16T03:13:58.022Z,14.90
2018-05-16T03:16:25.451Z,14.90
2018-05-16T03:18:52.886Z,14.90
2018-05-16T03:21:20.329Z,14.90
2018-05-16T03:23:48.529Z,14.90
2018-05-16T03:26:16.013Z,14.80
2018-05-16T03:28:43.469Z,14.80
2018-05-16T03:31:10.933Z,14.90
2018-05-16T03:33:38.357Z,14.90
2018-05-16T03:36:05.848Z,14.90
2018-05-16T03:38:33.273Z,14.90
2018-05-16T03:41:00.711Z,14.80
2018-05-16T03:43:28.940Z,14.80
2018-05-16T03:45:56.374Z,14.80
2018-05-16T03:48:23.851Z,14.80
2018-05-16T03:50:51.290Z,14.70
2018-05-16T03:53:18.770Z,14.70
2018-05-16T03:55:46.209Z,14.70
2018-05-16T03:58:25.619Z,14.70
2018-05-16T04:01:05.802Z,14.60
2018-05-16T04:03:45.156Z,14.60
2018-05-16T04:06:12.589Z,14.60
2018-05-16T04:08:40.072Z,14.60
2018-05-16T04:11:07.509Z,14.60
2018-05-16T04:13:35.289Z,14.50
2018-05-16T04:16:02.657Z,14.50
2018-05-16T04:18:30.098Z,14.50
2018-05-16T04:20:57.563Z,14.40
2018-05-16T04:23:25.021Z,14.30
2018-05-16T04:25:52.484Z,14.40
2018-05-16T04:28:19.953Z,14.30
2018-05-16T04:30:47.402Z,14.30
2018-05-16T04:33:14.837Z,14.40
2018-05-16T04:35:42.274Z,14.50
2018-05-16T04:38:10.508Z,14.70
2018-05-16T04:40:37.949Z,14.70
2018-05-16T04:43:05.401Z,14.90
2018-05-16T04:45:32.861Z,15.00
2018-05-16T04:48:00.317Z,15.10
2018-05-16T04:50:27.750Z,15.20
2018-05-16T04:52:55.203Z,15.30
2018-05-16T04:55:22.689Z,15.30
2018-05-16T04:57:50.145Z,15.30
2018-05-16T05:00:17.589Z,15.30
2018-05-16T05:02:45.064Z,15.40
2018-05-16T05:05:12.526Z,15.50
2018-05-16T05:07:39.982Z,15.60
2018-05-16T05:10:07.433Z,15.70
2018-05-16T05:12:34.877Z,15.90
2018-05-16T05:15:02.357Z,16.00
2018-05-16T05:17:30.620Z,16.20
2018-05-16T05:19:58.085Z,16.30
2018-05-16T05:22:25.525Z,16.60
2018-05-16T05:24:52.957Z,16.70
2018-05-16T05:27:20.465Z,16.90
2018-05-16T05:29:47.921Z,17.00
2018-05-16T05:32:15.477Z,17.10
2018-05-16T05:34:43.653Z,17.20
2018-05-16T05:37:11.109Z,17.20
2018-05-16T05:39:38.561Z,17.20
2018-05-16T05:42:06.829Z,17.30
2018-05-16T05:44:34.282Z,17.50
2018-05-16T05:47:01.709Z,17.50
2018-05-16T05:49:30.045Z,18.00
2018-05-16T05:51:57.488Z,18.00
2018-05-16T05:54:24.934Z,19.00
2018-05-16T05:56:52.404Z,20.20
2018-05-16T05:59:19.852Z,21.50
2018-05-16T06:01:47.321Z,22.90
2018-05-16T06:04:14.763Z,23.70
2018-05-16T06:06:42.209Z,24.20
2018-05-16T06:09:09.636Z,24.70
2018-05-16T06:11:37.878Z,25.20
2018-05-16T06:14:05.321Z,25.20
2018-05-16T06:16:32.753Z,25.80
2018-05-16T06:19:00.245Z,26.30
2018-05-16T06:21:27.682Z,26.40
2018-05-16T06:23:55.986Z,26.80
2018-05-16T06:26:23.420Z,27.50
2018-05-16T06:28:50.901Z,27.60
2018-05-16T06:31:18.345Z,28.00
2018-05-16T06:33:45.777Z,28.60
2018-05-16T06:36:13.273Z,29.00
2018-05-16T06:38:40.697Z,29.40
2018-05-16T06:41:08.177Z,29.70
2018-05-16T06:43:35.601Z,30.00
2018-05-16T06:46:03.102Z,30.10
2018-05-16T06:48:30.556Z,30.30
2018-05-16T06:50:58.021Z,30.50
2018-05-16T06:53:25.468Z,30.50
2018-05-16T06:55:52.930Z,30.20
2018-05-16T06:58:20.369Z,30.30
2018-05-16T07:00:47.805Z,30.50
2018-05-16T07:03:15.305Z,30.60
2018-05-16T07:05:42.761Z,30.20
2018-05-16T07:08:10.966Z,29.70
2018-05-16T07:10:38.389Z,28.90
2018-05-16T07:13:05.850Z,28.30
2018-05-16T07:15:33.305Z,27.90
2018-05-16T07:18:00.729Z,27.60
2018-05-16T07:20:28.202Z,27.30
2018-05-16T07:22:55.781Z,27.20
2018-05-16T07:25:23.856Z,27.10
2018-05-16T07:27:51.296Z,27.10
2018-05-16T07:30:18.728Z,26.90
2018-05-16T07:32:46.941Z,27.10
2018-05-16T07:35:14.382Z,27.10
2018-05-16T07:37:41.949Z,27.20
2018-05-16T07:40:09.421Z,27.00
2018-05-16T07:42:36.871Z,26.80
2018-05-16T07:45:04.334Z,26.80
2018-05-16T07:47:31.826Z,26.70
2018-05-16T07:49:59.249Z,26.60
2018-05-16T07:52:26.709Z,26.40
2018-05-16T07:54:54.147Z,26.10
2018-05-16T07:57:21.626Z,25.90
2018-05-16T07:59:49.077Z,26.00
2018-05-16T08:02:16.511Z,25.90
2018-05-16T08:04:44.007Z,25.90
2018-05-16T08:07:11.437Z,26.00
2018-05-16T08:09:38.885Z,25.90
2018-05-16T08:12:06.372Z,25.90
2018-05-16T08:14:33.828Z,25.80
2018-05-16T08:17:01.290Z,25.80
2018-05-16T08:19:29.250Z,25.60
2018-05-16T08:21:56.686Z,25.50
2018-05-16T08:24:24.108Z,25.30
2018-05-16T08:26:52.351Z,24.90
2018-05-16T08:29:20.621Z,24.90
2018-05-16T08:31:48.133Z,24.80
2018-05-16T08:34:16.361Z,25.60
2018-05-16T08:36:43.910Z,25.60
2018-05-16T08:39:11.270Z,25.80
2018-05-16T08:41:38.685Z,25.40
2018-05-16T08:44:06.889Z,25.90
2018-05-16T08:46:34.313Z,25.80
2018-05-16T08:49:02.544Z,25.80
2018-05-16T08:51:29.980Z,25.80
2018-05-16T08:53:57.454Z,25.00
2018-05-16T08:56:24.881Z,25.00
2018-05-16T08:58:52.369Z,24.90
2018-05-16T09:01:19.891Z,24.90
2018-05-16T09:03:47.262Z,24.80
2018-05-16T09:06:14.709Z,24.30
2018-05-16T09:08:42.133Z,23.90
2018-05-16T09:11:09.659Z,23.80
2018-05-16T09:13:37.082Z,24.10
2018-05-16T09:16:04.575Z,24.60
2018-05-16T09:18:32.030Z,24.80
2018-05-16T09:20:59.472Z,24.70
2018-05-16T09:23:27.037Z,24.50
2018-05-16T09:25:54.509Z,24.60
2018-05-16T09:28:22.387Z,24.80
2018-05-16T09:30:50.547Z,24.80
2018-05-16T09:33:17.989Z,24.70
2018-05-16T09:35:45.473Z,24.70
2018-05-16T09:38:12.913Z,24.50
2018-05-16T09:40:40.353Z,24.60
2018-05-16T09:43:07.781Z,24.70
2018-05-16T09:45:36.038Z,24.30
2018-05-16T09:48:03.468Z,24.30
2018-05-16T09:50:30.901Z,24.20
2018-05-16T09:52:58.571Z,24.00
2018-05-16T09:55:26.046Z,23.80
2018-05-16T09:57:53.505Z,23.80
2018-05-16T10:00:26.754Z,23.90
2018-05-16T10:02:55.388Z,24.10
2018-05-16T10:05:22.817Z,24.10
2018-05-16T10:07:50.298Z,24.20
2018-05-16T10:10:17.757Z,24.30
2018-05-16T10:12:45.195Z,24.20
2018-05-16T10:15:12.700Z,24.00
2018-05-16T10:17:40.237Z,23.80
2018-05-16T10:20:07.772Z,23.70
2018-05-16T10:22:35.121Z,23.50
2018-05-16T10:25:02.607Z,23.40
2018-05-16T10:27:30.065Z,23.10
2018-05-16T10:29:57.493Z,22.80
2018-05-16T10:32:25.006Z,22.40
2018-05-16T10:34:52.481Z,22.10
2018-05-16T10:37:20.779Z,22.30
2018-05-16T10:39:48.174Z,22.20
2018-05-16T10:42:15.633Z,22.30
2018-05-16T10:44:43.108Z,22.30
2018-05-16T10:47:10.608Z,22.20
2018-05-16T10:49:38.815Z,22.00
2018-05-16T10:52:06.371Z,22.00
2018-05-16T10:54:33.891Z,21.90
2018-05-16T10:57:01.393Z,21.80
2018-05-16T10:59:28.870Z,22.00
2018-05-16T11:01:56.318Z,22.20
2018-05-16T11:04:23.771Z,22.30
2018-05-16T11:06:51.213Z,22.40
2018-05-16T11:09:19.454Z,22.40
2018-05-16T11:11:47.653Z,22.60
2018-05-16T11:14:15.092Z,22.60
2018-05-16T11:16:43.289Z,22.80
2018-05-16T11:19:10.764Z,22.80
2018-05-16T11:21:38.194Z,22.90
2018-05-16T11:24:05.635Z,23.20
2018-05-16T11:26:33.828Z,23.70
2018-05-16T11:29:01.272Z,23.70
2018-05-16T11:31:29.474Z,24.10
2018-05-16T11:33:56.913Z,24.10
2018-05-16T11:36:24.337Z,24.10
2018-05-16T11:38:51.866Z,24.30
2018-05-16T11:41:19.322Z,24.30
2018-05-16T11:43:46.777Z,23.70
2018-05-16T11:46:14.241Z,23.50
2018-05-16T11:48:41.676Z,23.40
2018-05-16T11:51:09.113Z,23.20
2018-05-16T11:53:36.725Z,23.30
2018-05-16T11:56:04.932Z,23.50
2018-05-16T11:58:33.136Z,23.70
2018-05-16T12:01:00.576Z,23.70
2018-05-16T12:03:28.797Z,23.80
2018-05-16T12:05:56.257Z,23.80
2018-05-16T12:08:23.715Z,23.90
2018-05-16T12:10:51.168Z,23.90
2018-05-16T12:13:18.601Z,24.10
2018-05-16T12:15:46.101Z,24.10
2018-05-16T12:18:13.541Z,24.00
2018-05-16T12:20:40.978Z,24.10
2018-05-16T12:23:08.404Z,24.10
2018-05-16T12:25:36.614Z,24.00
2018-05-16T12:28:04.094Z,24.00
2018-05-16T12:30:31.545Z,23.90
2018-05-16T12:32:58.997Z,23.80
2018-05-16T12:35:26.577Z,23.80
2018-05-16T12:37:54.027Z,23.50
2018-05-16T12:40:21.449Z,23.40
2018-05-16T12:43:00.817Z,23.00
2018-05-16T12:45:28.249Z,22.50
2018-05-16T12:47:55.729Z,22.30
2018-05-16T12:50:23.189Z,22.10
2018-05-16T12:52:50.649Z,22.20
2018-05-16T12:55:18.106Z,22.10
2018-05-16T12:57:45.573Z,21.90
2018-05-16T13:00:13.014Z,21.70
2018-05-16T13:02:40.441Z,21.50
2018-05-16T13:05:07.893Z,21.20
2018-05-16T13:07:36.113Z,20.50
2018-05-16T13:10:03.542Z,20.50
2018-05-16T13:12:30.972Z,20.30
2018-05-16T13:14:59.169Z,19.70
2018-05-16T13:17:26.657Z,19.70
2018-05-16T13:19:54.085Z,19.70
2018-05-16T13:22:21.526Z,19.70
2018-05-16T13:24:49.717Z,19.70
2018-05-16T13:27:17.201Z,19.70
2018-05-16T13:29:44.881Z,19.80
2018-05-16T13:32:12.325Z,19.70
2018-05-16T13:34:39.769Z,19.60
2018-05-16T13:37:07.197Z,19.60
2018-05-16T13:39:35.446Z,19.60
2018-05-16T13:42:02.963Z,19.60
2018-05-16T13:44:30.401Z,19.60
2018-05-16T13:46:57.885Z,19.60
2018-05-16T13:49:25.341Z,19.60
2018-05-16T13:51:52.781Z,19.70
2018-05-16T13:54:20.213Z,19.70
2018-05-16T13:56:48.413Z,19.60
2018-05-16T13:59:15.896Z,19.60
2018-05-16T14:01:43.366Z,19.50
2018-05-16T14:04:10.801Z,19.30
2018-05-16T14:06:38.269Z,19.20
2018-05-16T14:09:06.241Z,19.20
2018-05-16T14:11:33.708Z,19.30
2018-05-16T14:14:01.163Z,19.20
2018-05-16T14:16:28.609Z,19.10
2018-05-16T14:18:56.080Z,19.10
2018-05-16T14:21:23.529Z,19.20
2018-05-16T14:23:51.011Z,19.20
2018-05-16T14:26:18.413Z,19.30
2018-05-16T14:28:45.843Z,19.20
2018-05-16T14:31:14.107Z,19.40
2018-05-16T14:33:43.079Z,19.50
2018-05-16T14:36:10.541Z,19.50
2018-05-16T14:38:38.001Z,19.70
2018-05-16T14:41:05.449Z,20.00
2018-05-16T14:43:32.899Z,20.20
2018-05-16T14:46:00.345Z,20.30
2018-05-16T14:48:27.812Z,20.50
2018-05-16T14:50:55.273Z,20.70
2018-05-16T14:53:22.701Z,20.80
2018-05-16T14:55:50.138Z,21.00
2018-05-16T14:58:18.328Z,21.00
2018-05-16T15:00:45.825Z,21.00
2018-05-16T15:03:13.277Z,21.20
2018-05-16T15:05:40.721Z,21.20
2018-05-16T15:08:08.178Z,21.30
2018-05-16T15:10:35.610Z,21.30
2018-05-16T15:13:03.840Z,21.20
2018-05-16T15:15:31.306Z,21.20
2018-05-16T15:17:58.849Z,21.40
2018-05-16T15:20:26.321Z,21.50
2018-05-16T15:22:53.865Z,21.50
2018-05-16T15:25:21.305Z,21.60
2018-05-16T15:27:48.781Z,21.80
2018-05-16T15:30:16.254Z,21.80
2018-05-16T15:32:43.811Z,21.90
2018-05-16T15:35:11.233Z,22.10
2018-05-16T15:37:38.719Z,22.20
2018-05-16T15:40:06.181Z,22.40
2018-05-16T15:42:33.641Z,22.50
2018-05-16T15:45:01.083Z,22.60
2018-05-16T15:47:28.549Z,22.30
2018-05-16T15:49:55.989Z,22.20
2018-05-16T15:52:24.041Z,22.00
2018-05-16T15:54:51.473Z,21.80
2018-05-16T15:57:19.677Z,21.50
2018-05-16T15:59:47.182Z,21.50
2018-05-16T16:02:14.621Z,21.50
2018-05-16T16:04:42.063Z,21.40
2018-05-16T16:07:09.489Z,21.30
2018-05-16T16:09:37.809Z,21.10
2018-05-16T16:12:05.264Z,21.00
2018-05-16T16:14:32.673Z,20.90
2018-05-16T16:17:00.877Z,20.60
2018-05-16T16:19:28.310Z,20.60
2018-05-16T16:21:56.541Z,20.50
2018-05-16T16:24:23.993Z,20.50
2018-05-16T16:26:51.435Z,20.50
2018-05-16T16:29:19.000Z,20.40
2018-05-16T16:31:46.465Z,20.40
2018-05-16T16:34:14.657Z,20.30
2018-05-16T16:36:42.814Z,20.10
2018-05-16T16:39:10.240Z,20.10
2018-05-16T16:41:37.739Z,20.00
2018-05-16T16:44:05.165Z,20.00
2018-05-16T16:46:32.659Z,19.70
2018-05-16T16:49:00.087Z,19.70
2018-05-16T16:51:27.513Z,19.60
2018-05-16T16:53:55.737Z,19.10
2018-05-16T16:56:23.169Z,19.10
2018-05-16T16:58:50.613Z,19.00
2018-05-16T17:01:18.119Z,18.90
2018-05-16T17:03:45.557Z,18.80
2018-05-16T17:06:12.985Z,18.70
2018-05-16T17:08:40.439Z,18.80
2018-05-16T17:11:08.659Z,18.60
2018-05-16T17:13:36.226Z,18.50
2018-05-16T17:16:03.696Z,18.40
2018-05-16T17:18:31.128Z,18.20
2018-05-16T17:20:58.573Z,18.00
2018-05-16T17:23:26.055Z,17.70
2018-05-16T17:25:53.513Z,17.50
2018-05-16T17:28:20.973Z,17.40
2018-05-16T17:30:48.443Z,17.30
2018-05-16T17:33:15.906Z,17.20
2018-05-16T17:35:43.342Z,17.10
2018-05-16T17:38:10.793Z,16.90
2018-05-16T17:40:38.235Z,16.70
2018-05-16T17:43:05.662Z,16.70
2018-05-16T17:45:33.881Z,16.60
2018-05-16T17:48:01.346Z,16.50
2018-05-16T17:50:28.801Z,16.40
2018-05-16T17:52:56.710Z,16.30
2018-05-16T17:55:25.386Z,16.10
2018-05-16T17:57:52.825Z,16.10
2018-05-16T18:00:20.956Z,15.90
2018-05-16T18:02:48.755Z,15.40
2018-05-16T18:05:16.177Z,15.20
2018-05-16T18:07:43.608Z,15.10
2018-05-16T18:10:11.845Z,14.80
2018-05-16T18:12:39.300Z,14.80
2018-05-16T18:15:15.510Z,14.80
2018-05-16T18:17:43.718Z,14.90
2018-05-16T18:20:11.162Z,14.90
2018-05-16T18:22:38.590Z,14.70
2018-05-16T18:25:06.033Z,14.90
2018-05-16T18:27:33.469Z,15.00
2018-05-16T18:30:00.921Z,15.00
2018-05-16T18:32:28.381Z,14.90
2018-05-16T18:34:55.820Z,14.80
2018-05-16T18:37:23.297Z,14.90
2018-05-16T18:39:50.766Z,15.00
2018-05-16T18:42:18.311Z,15.10
2018-05-16T18:44:45.673Z,15.10
2018-05-16T18:47:13.110Z,15.10
2018-05-16T18:49:40.545Z,15.10
2018-05-16T18:52:08.757Z,15.10
2018-05-16T18:54:36.185Z,15.10
2018-05-16T18:57:03.625Z,15.10
2018-05-16T18:59:31.861Z,15.10
2018-05-16T19:01:59.305Z,15.10
2018-05-16T19:04:26.764Z,15.20
2018-05-16T19:06:54.210Z,15.10
2018-05-16T19:09:21.688Z,15.10
2018-05-16T19:11:49.251Z,15.20
2018-05-16T19:14:16.719Z,15.30
2018-05-16T19:16:44.170Z,15.60
2018-05-16T19:19:11.608Z,15.70
2018-05-16T19:21:39.081Z,15.60
2018-05-16T19:24:06.521Z,15.60
2018-05-16T19:26:33.957Z,15.60
2018-05-16T19:29:01.397Z,15.50
2018-05-16T19:31:29.620Z,15.40
2018-05-16T19:33:57.070Z,15.40
2018-05-16T19:36:24.536Z,15.40
2018-05-16T19:38:51.993Z,15.40
2018-05-16T19:41:19.434Z,15.30
2018-05-16T19:43:46.909Z,15.40
2018-05-16T19:46:14.432Z,15.40
2018-05-16T19:48:41.856Z,15.40
2018-05-16T19:51:09.298Z,15.40
2018-05-16T19:53:36.742Z,15.40
2018-05-16T19:56:04.177Z,15.40
2018-05-16T19:58:31.627Z,15.50
2018-05-16T20:00:59.817Z,15.50
2018-05-16T20:03:27.260Z,15.50
2018-05-16T20:05:54.746Z,15.50
2018-05-16T20:08:22.201Z,15.50
2018-05-16T20:10:49.657Z,15.60
2018-05-16T20:13:17.094Z,15.60
2018-05-16T20:15:44.521Z,15.70
2018-05-16T20:18:12.735Z,15.70
2018-05-16T20:20:40.186Z,15.70
2018-05-16T20:23:08.073Z,15.60
2018-05-16T20:25:35.529Z,15.70
2018-05-16T20:28:02.993Z,15.50
2018-05-16T20:30:30.446Z,15.50
2018-05-16T20:32:58.221Z,15.40
2018-05-16T20:35:25.653Z,15.50
2018-05-16T20:37:53.134Z,15.50
2018-05-16T20:40:20.581Z,15.50
2018-05-16T20:42:48.019Z,15.60
2018-05-16T20:45:15.500Z,15.50
2018-05-16T20:47:43.657Z,15.30
2018-05-16T20:50:11.137Z,15.30
2018-05-16T20:52:38.654Z,15.30
2018-05-16T20:55:06.861Z,15.30
2018-05-16T20:57:34.306Z,15.30
2018-05-16T21:00:01.785Z,15.30
2018-05-16T21:02:29.241Z,15.20
2018-05-16T21:04:56.709Z,15.00
2018-05-16T21:07:24.150Z,15.00
2018-05-16T21:09:51.590Z,15.00
2018-05-16T21:12:19.053Z,15.10
2018-05-16T21:14:46.472Z,15.30
2018-05-16T21:17:14.704Z,15.30
2018-05-16T21:19:42.161Z,15.30
2018-05-16T21:22:09.605Z,15.30
2018-05-16T21:24:37.082Z,15.20
2018-05-16T21:27:04.560Z,15.20
2018-05-16T21:29:32.097Z,15.20
2018-05-16T21:31:59.660Z,15.20
2018-05-16T21:34:27.101Z,15.20
2018-05-16T21:36:54.549Z,15.20
2018-05-16T21:39:22.043Z,15.30
2018-05-16T21:41:50.308Z,15.30
2018-05-16T21:44:17.817Z,15.20
2018-05-16T21:46:46.014Z,15.00
2018-05-16T21:49:13.497Z,15.00
2018-05-16T21:51:40.941Z,14.90
2018-05-16T21:54:08.377Z,14.80
2018-05-16T21:56:35.883Z,14.70
2018-05-16T21:59:03.334Z,14.70
2018-05-16T22:01:30.784Z,14.80
2018-05-16T22:03:58.245Z,14.70
2018-05-16T22:06:25.682Z,14.60
2018-05-16T22:08:53.168Z,14.50
2018-05-16T22:11:20.629Z,14.40
2018-05-16T22:13:48.539Z,14.40
2018-05-16T22:16:16.741Z,14.30
2018-05-16T22:18:45.256Z,14.30
2018-05-16T22:21:12.806Z,14.30
2018-05-16T22:23:40.278Z,14.30
2018-05-16T22:26:07.821Z,14.20
2018-05-16T22:28:35.268Z,14.20
2018-05-16T22:31:08.453Z,14.20
2018-05-16T22:33:41.677Z,14.10
2018-05-16T22:36:14.763Z,14.10
2018-05-16T22:38:47.921Z,14.00
2018-05-16T22:41:21.062Z,13.90
2018-05-16T22:46:50.117Z,14.00
2018-05-16T22:49:17.618Z,13.90
2018-05-16T22:51:45.071Z,13.80
2018-05-16T22:54:12.503Z,13.70
2018-05-16T22:56:39.989Z,13.70
2018-05-16T22:59:07.423Z,13.70
2018-05-16T23:01:34.861Z,13.60
2018-05-16T23:04:02.356Z,13.40
2018-05-16T23:06:29.798Z,13.40
2018-05-16T23:08:57.249Z,13.40
2018-05-16T23:11:24.728Z,13.30
2018-05-16T23:13:52.177Z,13.20
2018-05-16T23:16:19.645Z,13.30
2018-05-16T23:18:47.088Z,13.20
2018-05-16T23:21:14.766Z,13.10
2018-05-16T23:23:42.225Z,13.00
2018-05-16T23:26:09.668Z,13.10
2018-05-16T23:28:37.137Z,13.10
2018-05-16T23:31:04.578Z,13.10
2018-05-16T23:33:32.053Z,13.00
2018-05-16T23:35:59.520Z,13.00
2018-05-16T23:38:26.953Z,13.00
2018-05-16T23:40:54.394Z,12.90
2018-05-16T23:43:21.826Z,12.90
2018-05-16T23:45:50.031Z,12.80
2018-05-16T23:48:17.478Z,12.80
2018-05-16T23:50:44.924Z,12.80
2018-05-16T23:53:13.150Z,12.80
2018-05-16T23:55:40.613Z,12.80
2018-05-16T23:58:08.070Z,12.90
